sensor_id;sensor_type;location;lat;lon;timestamp;temperature;humidity
14099;DHT22;7126;48.458;7.930;2023-03-26T00:00:40;10.50;99.90
14099;DHT22;7126;48.458;7.930;2023-03-26T00:03:09;10.50;99.90
14099;DHT22;7126;48.458;7.930;2023-03-26T00:05:38;10.50;99.90
14099;DHT22;7126;48.458;7.930;2023-03-26T00:08:05;10.50;99.90
14099;DHT22;7126;48.458;7.930;2023-03-26T00:10:37;10.50;99.90
14099;DHT22;7126;48.458;7.930;2023-03-26T00:13:04;10.40;99.90
14099;DHT22;7126;48.458;7.930;2023-03-26T00:15:31;10.40;99.90
14099;DHT22;7126;48.458;7.930;2023-03-26T00:17:57;10.40;99.90
14099;DHT22;7126;48.458;7.930;2023-03-26T00:20:25;10.30;99.90
14099;DHT22;7126;48.458;7.930;2023-03-26T00:22:52;10.30;99.90
14099;DHT22;7126;48.458;7.930;2023-03-26T00:25:20;10.20;99.90
14099;DHT22;7126;48.458;7.930;2023-03-26T00:27:45;10.20;99.90
14099;DHT22;7126;48.458;7.930;2023-03-26T00:30:11;10.30;99.90
14099;DHT22;7126;48.458;7.930;2023-03-26T00:32:37;10.30;99.90
14099;DHT22;7126;48.458;7.930;2023-03-26T00:35:03;10.30;99.90
14099;DHT22;7126;48.458;7.930;2023-03-26T00:37:29;10.20;99.90
14099;DHT22;7126;48.458;7.930;2023-03-26T00:39:56;10.20;99.90
14099;DHT22;7126;48.458;7.930;2023-03-26T00:42:24;10.20;99.90
14099;DHT22;7126;48.458;7.930;2023-03-26T00:44:50;10.20;99.90
14099;DHT22;7126;48.458;7.930;2023-03-26T00:47:22;10.20;99.90
14099;DHT22;7126;48.458;7.930;2023-03-26T00:49:48;10.20;99.90
14099;DHT22;7126;48.458;7.930;2023-03-26T00:52:15;10.10;99.90
14099;DHT22;7126;48.458;7.930;2023-03-26T00:54:43;10.10;99.90
14099;DHT22;7126;48.458;7.930;2023-03-26T00:57:09;10.10;99.90
14099;DHT22;7126;48.458;7.930;2023-03-26T00:59:36;10.10;99.90
14099;DHT22;7126;48.458;7.930;2023-03-26T01:02:02;10.10;99.90
14099;DHT22;7126;48.458;7.930;2023-03-26T01:04:31;10.10;99.90
14099;DHT22;7126;48.458;7.930;2023-03-26T01:07:02;10.10;99.90
14099;DHT22;7126;48.458;7.930;2023-03-26T01:09:35;10.10;99.90
14099;DHT22;7126;48.458;7.930;2023-03-26T01:12:05;10.10;99.90
14099;DHT22;7126;48.458;7.930;2023-03-26T01:14:32;10.10;99.90
14099;DHT22;7126;48.458;7.930;2023-03-26T01:17:01;10.20;99.90
14099;DHT22;7126;48.458;7.930;2023-03-26T01:22:25;10.10;99.90
14099;DHT22;7126;48.458;7.930;2023-03-26T01:24:51;10.00;99.90
14099;DHT22;7126;48.458;7.930;2023-03-26T01:27:39;10.00;99.90
14099;DHT22;7126;48.458;7.930;2023-03-26T01:38:29;9.90;99.90
14099;DHT22;7126;48.458;7.930;2023-03-26T01:41:04;9.90;99.90
14099;DHT22;7126;48.458;7.930;2023-03-26T01:46:36;10.00;99.90
14099;DHT22;7126;48.458;7.930;2023-03-26T01:49:06;10.00;99.90
14099;DHT22;7126;48.458;7.930;2023-03-26T01:51:38;9.90;99.90
14099;DHT22;7126;48.458;7.930;2023-03-26T01:54:06;9.90;99.90
14099;DHT22;7126;48.458;7.930;2023-03-26T02:08:16;9.80;99.90
14099;DHT22;7126;48.458;7.930;2023-03-26T02:10:46;9.80;99.90
14099;DHT22;7126;48.458;7.930;2023-03-26T02:13:13;9.90;99.90
14099;DHT22;7126;48.458;7.930;2023-03-26T02:15:39;9.90;99.90
14099;DHT22;7126;48.458;7.930;2023-03-26T02:18:06;9.90;99.90
14099;DHT22;7126;48.458;7.930;2023-03-26T02:20:35;9.90;99.90
14099;DHT22;7126;48.458;7.930;2023-03-26T02:23:01;9.90;99.90
14099;DHT22;7126;48.458;7.930;2023-03-26T02:25:26;9.80;99.90
14099;DHT22;7126;48.458;7.930;2023-03-26T02:27:52;9.80;99.90
14099;DHT22;7126;48.458;7.930;2023-03-26T02:30:22;9.80;99.90
14099;DHT22;7126;48.458;7.930;2023-03-26T02:32:51;9.70;99.90
14099;DHT22;7126;48.458;7.930;2023-03-26T02:35:19;9.70;99.90
14099;DHT22;7126;48.458;7.930;2023-03-26T02:37:45;9.70;99.90
14099;DHT22;7126;48.458;7.930;2023-03-26T02:40:11;9.70;99.90
14099;DHT22;7126;48.458;7.930;2023-03-26T02:42:37;9.70;99.90
14099;DHT22;7126;48.458;7.930;2023-03-26T02:45:04;9.70;99.90
14099;DHT22;7126;48.458;7.930;2023-03-26T02:47:30;9.80;99.90
14099;DHT22;7126;48.458;7.930;2023-03-26T02:49:55;9.80;99.90
14099;DHT22;7126;48.458;7.930;2023-03-26T02:52:21;9.80;99.90
14099;DHT22;7126;48.458;7.930;2023-03-26T02:54:46;9.80;99.90
14099;DHT22;7126;48.458;7.930;2023-03-26T02:57:12;9.80;99.90
14099;DHT22;7126;48.458;7.930;2023-03-26T02:59:38;9.80;99.90
14099;DHT22;7126;48.458;7.930;2023-03-26T03:02:05;9.80;99.90
14099;DHT22;7126;48.458;7.930;2023-03-26T03:04:30;9.80;99.90
14099;DHT22;7126;48.458;7.930;2023-03-26T03:06:56;9.80;99.90
14099;DHT22;7126;48.458;7.930;2023-03-26T03:09:23;9.70;99.90
14099;DHT22;7126;48.458;7.930;2023-03-26T03:11:49;9.70;99.90
14099;DHT22;7126;48.458;7.930;2023-03-26T03:14:16;9.60;99.90
14099;DHT22;7126;48.458;7.930;2023-03-26T03:16:42;9.60;99.90
14099;DHT22;7126;48.458;7.930;2023-03-26T03:19:07;9.50;99.90
14099;DHT22;7126;48.458;7.930;2023-03-26T03:21:33;9.50;99.90
14099;DHT22;7126;48.458;7.930;2023-03-26T03:23:58;9.50;99.90
14099;DHT22;7126;48.458;7.930;2023-03-26T03:26:24;9.50;99.90
14099;DHT22;7126;48.458;7.930;2023-03-26T03:28:55;9.50;99.90
14099;DHT22;7126;48.458;7.930;2023-03-26T03:31:23;9.40;99.90
14099;DHT22;7126;48.458;7.930;2023-03-26T03:33:49;9.40;99.90
14099;DHT22;7126;48.458;7.930;2023-03-26T03:36:16;9.50;99.90
14099;DHT22;7126;48.458;7.930;2023-03-26T03:38:43;9.50;99.90
14099;DHT22;7126;48.458;7.930;2023-03-26T03:41:09;9.40;99.90
14099;DHT22;7126;48.458;7.930;2023-03-26T03:43:34;9.40;99.90
14099;DHT22;7126;48.458;7.930;2023-03-26T03:46:00;9.40;99.90
14099;DHT22;7126;48.458;7.930;2023-03-26T03:48:26;9.40;99.90
14099;DHT22;7126;48.458;7.930;2023-03-26T03:50:53;9.50;99.90
14099;DHT22;7126;48.458;7.930;2023-03-26T03:53:20;9.40;99.90
14099;DHT22;7126;48.458;7.930;2023-03-26T03:55:45;9.50;99.90
14099;DHT22;7126;48.458;7.930;2023-03-26T03:58:21;9.50;99.90
14099;DHT22;7126;48.458;7.930;2023-03-26T04:00:51;9.50;99.90
14099;DHT22;7126;48.458;7.930;2023-03-26T04:03:18;9.50;99.90
14099;DHT22;7126;48.458;7.930;2023-03-26T04:05:45;9.60;99.90
14099;DHT22;7126;48.458;7.930;2023-03-26T04:08:15;9.60;99.90
14099;DHT22;7126;48.458;7.930;2023-03-26T04:10:41;9.50;99.90
14099;DHT22;7126;48.458;7.930;2023-03-26T04:13:08;9.50;99.90
14099;DHT22;7126;48.458;7.930;2023-03-26T04:15:34;9.40;99.90
14099;DHT22;7126;48.458;7.930;2023-03-26T04:18:00;9.40;99.90
14099;DHT22;7126;48.458;7.930;2023-03-26T04:20:26;9.40;99.90
14099;DHT22;7126;48.458;7.930;2023-03-26T04:22:51;9.40;99.90
14099;DHT22;7126;48.458;7.930;2023-03-26T04:25:17;9.30;99.90
14099;DHT22;7126;48.458;7.930;2023-03-26T04:27:43;9.30;99.90
14099;DHT22;7126;48.458;7.930;2023-03-26T04:30:14;9.30;99.90
14099;DHT22;7126;48.458;7.930;2023-03-26T04:32:41;9.30;99.90
14099;DHT22;7126;48.458;7.930;2023-03-26T04:35:12;9.30;99.90
14099;DHT22;7126;48.458;7.930;2023-03-26T04:37:39;9.30;99.90
14099;DHT22;7126;48.458;7.930;2023-03-26T04:40:14;9.30;99.90
14099;DHT22;7126;48.458;7.930;2023-03-26T04:42:40;9.20;99.90
14099;DHT22;7126;48.458;7.930;2023-03-26T04:45:11;9.20;99.90
14099;DHT22;7126;48.458;7.930;2023-03-26T04:47:37;9.20;99.90
14099;DHT22;7126;48.458;7.930;2023-03-26T04:50:07;9.20;99.90
14099;DHT22;7126;48.458;7.930;2023-03-26T04:52:34;9.20;99.90
14099;DHT22;7126;48.458;7.930;2023-03-26T04:55:00;9.20;99.90
14099;DHT22;7126;48.458;7.930;2023-03-26T04:57:37;9.20;99.90
14099;DHT22;7126;48.458;7.930;2023-03-26T05:00:05;9.20;99.90
14099;DHT22;7126;48.458;7.930;2023-03-26T05:02:40;9.20;99.90
14099;DHT22;7126;48.458;7.930;2023-03-26T05:05:07;9.20;99.90
14099;DHT22;7126;48.458;7.930;2023-03-26T05:07:33;9.30;99.90
14099;DHT22;7126;48.458;7.930;2023-03-26T05:09:58;9.20;99.90
14099;DHT22;7126;48.458;7.930;2023-03-26T05:12:27;9.20;99.90
14099;DHT22;7126;48.458;7.930;2023-03-26T05:14:53;9.20;99.90
14099;DHT22;7126;48.458;7.930;2023-03-26T05:17:18;9.20;99.90
14099;DHT22;7126;48.458;7.930;2023-03-26T05:19:45;9.20;99.90
14099;DHT22;7126;48.458;7.930;2023-03-26T05:22:12;9.20;99.90
14099;DHT22;7126;48.458;7.930;2023-03-26T05:24:37;9.20;99.90
14099;DHT22;7126;48.458;7.930;2023-03-26T05:27:03;9.20;99.90
14099;DHT22;7126;48.458;7.930;2023-03-26T05:29:29;9.20;99.90
14099;DHT22;7126;48.458;7.930;2023-03-26T05:31:54;9.20;99.90
14099;DHT22;7126;48.458;7.930;2023-03-26T05:34:20;9.20;99.90
14099;DHT22;7126;48.458;7.930;2023-03-26T05:36:48;9.10;99.90
14099;DHT22;7126;48.458;7.930;2023-03-26T05:39:14;9.10;99.90
14099;DHT22;7126;48.458;7.930;2023-03-26T05:41:39;9.20;99.90
14099;DHT22;7126;48.458;7.930;2023-03-26T05:44:05;9.20;99.90
14099;DHT22;7126;48.458;7.930;2023-03-26T05:46:30;9.20;99.90
14099;DHT22;7126;48.458;7.930;2023-03-26T05:48:56;9.20;99.90
14099;DHT22;7126;48.458;7.930;2023-03-26T05:51:21;9.20;99.90
14099;DHT22;7126;48.458;7.930;2023-03-26T05:53:48;9.20;99.90
14099;DHT22;7126;48.458;7.930;2023-03-26T05:56:13;9.10;99.90
14099;DHT22;7126;48.458;7.930;2023-03-26T05:58:39;9.00;99.90
14099;DHT22;7126;48.458;7.930;2023-03-26T06:01:10;9.00;99.90
14099;DHT22;7126;48.458;7.930;2023-03-26T06:03:42;9.00;99.90
14099;DHT22;7126;48.458;7.930;2023-03-26T06:06:10;9.00;99.90
14099;DHT22;7126;48.458;7.930;2023-03-26T06:08:44;9.00;99.90
14099;DHT22;7126;48.458;7.930;2023-03-26T06:11:14;9.00;99.90
14099;DHT22;7126;48.458;7.930;2023-03-26T06:13:41;9.00;99.90
14099;DHT22;7126;48.458;7.930;2023-03-26T06:16:07;9.00;99.90
14099;DHT22;7126;48.458;7.930;2023-03-26T06:18:33;9.10;99.90
14099;DHT22;7126;48.458;7.930;2023-03-26T06:20:59;9.10;99.90
14099;DHT22;7126;48.458;7.930;2023-03-26T06:23:24;9.10;99.90
14099;DHT22;7126;48.458;7.930;2023-03-26T06:25:50;9.10;99.90
14099;DHT22;7126;48.458;7.930;2023-03-26T06:28:16;9.20;99.90
14099;DHT22;7126;48.458;7.930;2023-03-26T06:30:41;9.20;99.90
14099;DHT22;7126;48.458;7.930;2023-03-26T06:33:07;9.20;99.90
14099;DHT22;7126;48.458;7.930;2023-03-26T06:35:33;9.30;99.90
14099;DHT22;7126;48.458;7.930;2023-03-26T06:37:58;9.20;99.90
14099;DHT22;7126;48.458;7.930;2023-03-26T06:40:25;9.30;99.90
14099;DHT22;7126;48.458;7.930;2023-03-26T06:42:51;9.20;99.90
14099;DHT22;7126;48.458;7.930;2023-03-26T06:45:17;9.30;99.90
14099;DHT22;7126;48.458;7.930;2023-03-26T06:47:42;9.30;99.90
14099;DHT22;7126;48.458;7.930;2023-03-26T06:50:09;9.30;99.90
14099;DHT22;7126;48.458;7.930;2023-03-26T06:52:36;9.30;99.90
14099;DHT22;7126;48.458;7.930;2023-03-26T06:55:02;9.30;99.90
14099;DHT22;7126;48.458;7.930;2023-03-26T06:57:30;9.30;99.90
14099;DHT22;7126;48.458;7.930;2023-03-26T06:59:55;9.40;99.90
14099;DHT22;7126;48.458;7.930;2023-03-26T07:02:21;9.40;99.90
14099;DHT22;7126;48.458;7.930;2023-03-26T07:04:46;9.40;99.90
14099;DHT22;7126;48.458;7.930;2023-03-26T07:07:12;9.50;99.90
14099;DHT22;7126;48.458;7.930;2023-03-26T07:09:38;9.50;99.90
14099;DHT22;7126;48.458;7.930;2023-03-26T07:12:04;9.50;99.90
14099;DHT22;7126;48.458;7.930;2023-03-26T07:14:30;9.60;99.90
14099;DHT22;7126;48.458;7.930;2023-03-26T07:16:59;9.60;99.90
14099;DHT22;7126;48.458;7.930;2023-03-26T07:19:25;9.60;99.90
14099;DHT22;7126;48.458;7.930;2023-03-26T07:21:51;9.60;99.90
14099;DHT22;7126;48.458;7.930;2023-03-26T07:24:17;9.70;99.90
14099;DHT22;7126;48.458;7.930;2023-03-26T07:26:57;9.90;99.90
14099;DHT22;7126;48.458;7.930;2023-03-26T07:32:18;10.20;99.90
14099;DHT22;7126;48.458;7.930;2023-03-26T07:34:58;10.30;99.90
14099;DHT22;7126;48.458;7.930;2023-03-26T07:46:10;10.50;99.90
14099;DHT22;7126;48.458;7.930;2023-03-26T07:48:41;10.50;99.90
14099;DHT22;7126;48.458;7.930;2023-03-26T07:51:08;10.50;99.90
14099;DHT22;7126;48.458;7.930;2023-03-26T07:53:34;10.50;99.90
14099;DHT22;7126;48.458;7.930;2023-03-26T08:01:18;10.50;99.90
14099;DHT22;7126;48.458;7.930;2023-03-26T08:06:33;10.50;99.90
14099;DHT22;7126;48.458;7.930;2023-03-26T08:11:42;10.50;99.90
14099;DHT22;7126;48.458;7.930;2023-03-26T08:14:26;10.60;99.90
14099;DHT22;7126;48.458;7.930;2023-03-26T08:22:40;10.60;99.90
14099;DHT22;7126;48.458;7.930;2023-03-26T08:25:28;10.60;99.90
14099;DHT22;7126;48.458;7.930;2023-03-26T08:30:25;10.50;99.90
14099;DHT22;7126;48.458;7.930;2023-03-26T08:32:56;10.50;99.90
14099;DHT22;7126;48.458;7.930;2023-03-26T08:35:24;10.50;99.90
14099;DHT22;7126;48.458;7.930;2023-03-26T08:37:50;10.50;99.90
14099;DHT22;7126;48.458;7.930;2023-03-26T08:49:16;10.60;99.90
14099;DHT22;7126;48.458;7.930;2023-03-26T08:54:59;10.20;99.90
14099;DHT22;7126;48.458;7.930;2023-03-26T09:10:57;10.60;99.90
14099;DHT22;7126;48.458;7.930;2023-03-26T09:28:01;11.00;99.90
14099;DHT22;7126;48.458;7.930;2023-03-26T09:33:30;11.10;99.90
14099;DHT22;7126;48.458;7.930;2023-03-26T09:36:18;11.20;99.90
14099;DHT22;7126;48.458;7.930;2023-03-26T09:54:31;11.40;99.90
14099;DHT22;7126;48.458;7.930;2023-03-26T10:00:07;11.60;99.90
14099;DHT22;7126;48.458;7.930;2023-03-26T10:03:12;11.70;99.90
14099;DHT22;7126;48.458;7.930;2023-03-26T10:11:08;11.90;99.90
14099;DHT22;7126;48.458;7.930;2023-03-26T10:13:55;12.20;99.90
14099;DHT22;7126;48.458;7.930;2023-03-26T10:21:44;13.20;99.90
14099;DHT22;7126;48.458;7.930;2023-03-26T10:30:01;13.80;99.90
14099;DHT22;7126;48.458;7.930;2023-03-26T10:32:56;13.80;99.90
14099;DHT22;7126;48.458;7.930;2023-03-26T10:36:17;14.00;99.90
14099;DHT22;7126;48.458;7.930;2023-03-26T10:41:12;14.20;99.90
14099;DHT22;7126;48.458;7.930;2023-03-26T10:52:19;14.70;99.90
14099;DHT22;7126;48.458;7.930;2023-03-26T10:54:56;14.80;99.90
14099;DHT22;7126;48.458;7.930;2023-03-26T11:09:07;15.00;99.90
14099;DHT22;7126;48.458;7.930;2023-03-26T11:14:32;14.50;99.90
14099;DHT22;7126;48.458;7.930;2023-03-26T11:17:16;14.80;99.90
14099;DHT22;7126;48.458;7.930;2023-03-26T11:20:06;15.20;99.90
14099;DHT22;7126;48.458;7.930;2023-03-26T11:23:02;15.60;99.90
14099;DHT22;7126;48.458;7.930;2023-03-26T11:28:32;16.10;99.90
14099;DHT22;7126;48.458;7.930;2023-03-26T11:33:38;16.40;99.90
14099;DHT22;7126;48.458;7.930;2023-03-26T11:36:08;16.00;99.90
14099;DHT22;7126;48.458;7.930;2023-03-26T11:38:37;16.00;99.90
14099;DHT22;7126;48.458;7.930;2023-03-26T11:41:23;16.10;99.90
14099;DHT22;7126;48.458;7.930;2023-03-26T11:43:54;15.90;99.90
14099;DHT22;7126;48.458;7.930;2023-03-26T11:46:22;15.80;99.90
14099;DHT22;7126;48.458;7.930;2023-03-26T11:48:51;15.50;99.90
14099;DHT22;7126;48.458;7.930;2023-03-26T11:51:37;15.10;99.90
14099;DHT22;7126;48.458;7.930;2023-03-26T11:54:04;14.90;99.90
14099;DHT22;7126;48.458;7.930;2023-03-26T11:56:51;14.90;99.90
14099;DHT22;7126;48.458;7.930;2023-03-26T11:59:35;14.80;99.90
14099;DHT22;7126;48.458;7.930;2023-03-26T12:07:18;15.20;99.90
14099;DHT22;7126;48.458;7.930;2023-03-26T12:12:16;15.60;99.90
14099;DHT22;7126;48.458;7.930;2023-03-26T12:14:43;15.50;99.90
14099;DHT22;7126;48.458;7.930;2023-03-26T12:17:14;15.40;99.90
14099;DHT22;7126;48.458;7.930;2023-03-26T12:19:49;15.20;99.90
14099;DHT22;7126;48.458;7.930;2023-03-26T12:22:37;14.90;99.90
14099;DHT22;7126;48.458;7.930;2023-03-26T12:25:21;14.80;99.90
14099;DHT22;7126;48.458;7.930;2023-03-26T12:27:48;14.60;99.90
14099;DHT22;7126;48.458;7.930;2023-03-26T12:30:25;14.50;99.90
14099;DHT22;7126;48.458;7.930;2023-03-26T12:32:55;14.40;99.90
14099;DHT22;7126;48.458;7.930;2023-03-26T12:35:26;14.30;99.90
14099;DHT22;7126;48.458;7.930;2023-03-26T12:37:55;14.20;99.90
14099;DHT22;7126;48.458;7.930;2023-03-26T12:40:34;14.10;99.90
14099;DHT22;7126;48.458;7.930;2023-03-26T12:43:03;13.50;99.90
14099;DHT22;7126;48.458;7.930;2023-03-26T12:45:41;13.10;99.90
14099;DHT22;7126;48.458;7.930;2023-03-26T12:48:10;12.60;99.90
14099;DHT22;7126;48.458;7.930;2023-03-26T12:56:15;12.30;99.90
14099;DHT22;7126;48.458;7.930;2023-03-26T12:58:50;12.50;99.90
14099;DHT22;7126;48.458;7.930;2023-03-26T13:01:50;12.60;99.90
14099;DHT22;7126;48.458;7.930;2023-03-26T13:07:50;12.70;99.90
14099;DHT22;7126;48.458;7.930;2023-03-26T13:16:27;12.70;99.90
14099;DHT22;7126;48.458;7.930;2023-03-26T13:30:19;12.20;99.90
14099;DHT22;7126;48.458;7.930;2023-03-26T13:46:37;12.10;99.90
14099;DHT22;7126;48.458;7.930;2023-03-26T13:54:15;11.00;99.90
14099;DHT22;7126;48.458;7.930;2023-03-26T13:56:54;11.00;99.90
14099;DHT22;7126;48.458;7.930;2023-03-26T13:59:28;11.10;99.90
14099;DHT22;7126;48.458;7.930;2023-03-26T14:02:02;11.10;99.90
14099;DHT22;7126;48.458;7.930;2023-03-26T14:04:39;11.10;99.90
14099;DHT22;7126;48.458;7.930;2023-03-26T14:07:13;11.10;99.90
14099;DHT22;7126;48.458;7.930;2023-03-26T14:10:01;11.00;99.90
14099;DHT22;7126;48.458;7.930;2023-03-26T14:15:05;10.90;99.90
14099;DHT22;7126;48.458;7.930;2023-03-26T14:17:48;10.80;99.90
14099;DHT22;7126;48.458;7.930;2023-03-26T14:31:35;9.90;99.90
14099;DHT22;7126;48.458;7.930;2023-03-26T14:40:34;10.00;99.90
14099;DHT22;7126;48.458;7.930;2023-03-26T14:43:34;10.10;99.90
14099;DHT22;7126;48.458;7.930;2023-03-26T14:52:06;10.10;99.90
14099;DHT22;7126;48.458;7.930;2023-03-26T14:54:37;10.20;99.90
14099;DHT22;7126;48.458;7.930;2023-03-26T14:57:22;10.30;99.90
14099;DHT22;7126;48.458;7.930;2023-03-26T15:17:52;10.60;99.90
14099;DHT22;7126;48.458;7.930;2023-03-26T15:41:09;10.10;99.90
14099;DHT22;7126;48.458;7.930;2023-03-26T15:46:48;10.10;99.90
14099;DHT22;7126;48.458;7.930;2023-03-26T15:52:04;10.00;99.90
14099;DHT22;7126;48.458;7.930;2023-03-26T15:54:56;9.90;99.90
14099;DHT22;7126;48.458;7.930;2023-03-26T15:57:39;9.90;99.90
14099;DHT22;7126;48.458;7.930;2023-03-26T16:00:22;9.90;99.90
14099;DHT22;7126;48.458;7.930;2023-03-26T16:02:55;9.90;99.90
14099;DHT22;7126;48.458;7.930;2023-03-26T16:08:11;9.90;99.90
14099;DHT22;7126;48.458;7.930;2023-03-26T16:10:59;10.00;99.90
14099;DHT22;7126;48.458;7.930;2023-03-26T16:16:52;10.00;99.90
14099;DHT22;7126;48.458;7.930;2023-03-26T16:21:59;10.10;99.90
14099;DHT22;7126;48.458;7.930;2023-03-26T16:24:33;10.10;99.90
14099;DHT22;7126;48.458;7.930;2023-03-26T16:27:00;10.20;99.90
14099;DHT22;7126;48.458;7.930;2023-03-26T16:29:29;10.20;99.90
14099;DHT22;7126;48.458;7.930;2023-03-26T16:32:13;10.30;99.90
14099;DHT22;7126;48.458;7.930;2023-03-26T16:49:04;10.40;99.90
14099;DHT22;7126;48.458;7.930;2023-03-26T16:51:51;10.20;99.90
14099;DHT22;7126;48.458;7.930;2023-03-26T16:55:23;10.10;99.90
14099;DHT22;7126;48.458;7.930;2023-03-26T17:00:28;10.20;99.90
14099;DHT22;7126;48.458;7.930;2023-03-26T17:16:48;10.10;99.90
14099;DHT22;7126;48.458;7.930;2023-03-26T17:19:35;10.10;99.90
14099;DHT22;7126;48.458;7.930;2023-03-26T17:22:42;10.10;99.90
14099;DHT22;7126;48.458;7.930;2023-03-26T17:33:41;10.10;99.90
14099;DHT22;7126;48.458;7.930;2023-03-26T17:41:08;10.00;99.90
14099;DHT22;7126;48.458;7.930;2023-03-26T17:46:26;9.90;99.90
14099;DHT22;7126;48.458;7.930;2023-03-26T17:51:58;9.80;99.90
14099;DHT22;7126;48.458;7.930;2023-03-26T17:57:15;9.90;99.90
14099;DHT22;7126;48.458;7.930;2023-03-26T17:59:44;9.90;99.90
14099;DHT22;7126;48.458;7.930;2023-03-26T18:02:22;9.90;99.90
14099;DHT22;7126;48.458;7.930;2023-03-26T18:04:52;9.90;99.90
14099;DHT22;7126;48.458;7.930;2023-03-26T18:16:03;9.80;99.90
14099;DHT22;7126;48.458;7.930;2023-03-26T18:18:36;9.70;99.90
14099;DHT22;7126;48.458;7.930;2023-03-26T18:21:04;9.70;99.90
14099;DHT22;7126;48.458;7.930;2023-03-26T18:23:38;9.70;99.90
14099;DHT22;7126;48.458;7.930;2023-03-26T18:26:36;9.60;99.90
14099;DHT22;7126;48.458;7.930;2023-03-26T18:29:29;9.50;99.90
14099;DHT22;7126;48.458;7.930;2023-03-26T18:34:26;9.50;99.90
14099;DHT22;7126;48.458;7.930;2023-03-26T18:37:18;9.40;99.90
14099;DHT22;7126;48.458;7.930;2023-03-26T18:40:09;9.40;99.90
14099;DHT22;7126;48.458;7.930;2023-03-26T18:42:43;9.30;99.90
14099;DHT22;7126;48.458;7.930;2023-03-26T18:45:26;9.30;99.90
14099;DHT22;7126;48.458;7.930;2023-03-26T18:47:55;9.30;99.90
14099;DHT22;7126;48.458;7.930;2023-03-26T18:50:25;9.40;99.90
14099;DHT22;7126;48.458;7.930;2023-03-26T18:52:51;9.30;99.90
14099;DHT22;7126;48.458;7.930;2023-03-26T18:55:17;9.30;99.90
14099;DHT22;7126;48.458;7.930;2023-03-26T18:57:43;9.20;99.90
14099;DHT22;7126;48.458;7.930;2023-03-26T19:00:21;9.20;99.90
14099;DHT22;7126;48.458;7.930;2023-03-26T19:03:01;9.20;99.90
14099;DHT22;7126;48.458;7.930;2023-03-26T19:05:28;9.20;99.90
14099;DHT22;7126;48.458;7.930;2023-03-26T19:07:57;9.30;99.90
14099;DHT22;7126;48.458;7.930;2023-03-26T19:10:23;9.30;99.90
14099;DHT22;7126;48.458;7.930;2023-03-26T19:13:00;9.30;99.90
14099;DHT22;7126;48.458;7.930;2023-03-26T19:15:28;9.30;99.90
14099;DHT22;7126;48.458;7.930;2023-03-26T19:17:57;9.40;99.90
14099;DHT22;7126;48.458;7.930;2023-03-26T19:20:31;9.30;99.90
14099;DHT22;7126;48.458;7.930;2023-03-26T19:22:57;9.30;99.90
14099;DHT22;7126;48.458;7.930;2023-03-26T19:25:38;9.20;99.90
14099;DHT22;7126;48.458;7.930;2023-03-26T19:28:09;9.20;99.90
14099;DHT22;7126;48.458;7.930;2023-03-26T19:30:39;9.20;99.90
14099;DHT22;7126;48.458;7.930;2023-03-26T19:33:17;9.20;99.90
14099;DHT22;7126;48.458;7.930;2023-03-26T19:35:45;9.20;99.90
14099;DHT22;7126;48.458;7.930;2023-03-26T19:38:23;9.20;99.90
14099;DHT22;7126;48.458;7.930;2023-03-26T19:40:52;9.20;99.90
14099;DHT22;7126;48.458;7.930;2023-03-26T19:43:19;9.10;99.90
14099;DHT22;7126;48.458;7.930;2023-03-26T19:45:45;9.10;99.90
14099;DHT22;7126;48.458;7.930;2023-03-26T19:48:15;9.20;99.90
14099;DHT22;7126;48.458;7.930;2023-03-26T19:50:51;9.20;99.90
14099;DHT22;7126;48.458;7.930;2023-03-26T19:53:21;9.20;99.90
14099;DHT22;7126;48.458;7.930;2023-03-26T19:58:21;9.30;99.90
14099;DHT22;7126;48.458;7.930;2023-03-26T20:00:47;9.30;99.90
14099;DHT22;7126;48.458;7.930;2023-03-26T20:03:25;9.30;99.90
14099;DHT22;7126;48.458;7.930;2023-03-26T20:05:51;9.30;99.90
14099;DHT22;7126;48.458;7.930;2023-03-26T20:08:18;9.30;99.90
14099;DHT22;7126;48.458;7.930;2023-03-26T20:10:44;9.30;99.90
14099;DHT22;7126;48.458;7.930;2023-03-26T20:13:16;9.30;99.90
14099;DHT22;7126;48.458;7.930;2023-03-26T20:15:45;9.30;99.90
14099;DHT22;7126;48.458;7.930;2023-03-26T20:18:12;9.30;99.90
14099;DHT22;7126;48.458;7.930;2023-03-26T20:20:37;9.20;99.90
14099;DHT22;7126;48.458;7.930;2023-03-26T20:23:11;9.20;99.90
14099;DHT22;7126;48.458;7.930;2023-03-26T20:25:42;9.20;99.90
14099;DHT22;7126;48.458;7.930;2023-03-26T20:28:10;9.20;99.90
14099;DHT22;7126;48.458;7.930;2023-03-26T20:30:36;9.20;99.90
14099;DHT22;7126;48.458;7.930;2023-03-26T20:33:02;9.10;99.90
14099;DHT22;7126;48.458;7.930;2023-03-26T20:35:30;9.00;99.90
14099;DHT22;7126;48.458;7.930;2023-03-26T20:37:56;9.00;99.90
14099;DHT22;7126;48.458;7.930;2023-03-26T20:40:22;9.00;99.90
14099;DHT22;7126;48.458;7.930;2023-03-26T20:42:48;9.00;99.90
14099;DHT22;7126;48.458;7.930;2023-03-26T20:45:18;9.00;99.90
14099;DHT22;7126;48.458;7.930;2023-03-26T20:47:44;9.10;99.90
14099;DHT22;7126;48.458;7.930;2023-03-26T20:50:14;9.20;99.90
14099;DHT22;7126;48.458;7.930;2023-03-26T20:52:40;9.20;99.90
14099;DHT22;7126;48.458;7.930;2023-03-26T20:55:14;9.30;99.90
14099;DHT22;7126;48.458;7.930;2023-03-26T20:57:41;9.30;99.90
14099;DHT22;7126;48.458;7.930;2023-03-26T21:00:09;9.40;99.90
14099;DHT22;7126;48.458;7.930;2023-03-26T21:02:44;9.40;99.90
14099;DHT22;7126;48.458;7.930;2023-03-26T21:05:10;9.50;99.90
14099;DHT22;7126;48.458;7.930;2023-03-26T21:07:42;9.40;99.90
14099;DHT22;7126;48.458;7.930;2023-03-26T21:10:12;9.40;99.90
14099;DHT22;7126;48.458;7.930;2023-03-26T21:12:43;9.40;99.90
14099;DHT22;7126;48.458;7.930;2023-03-26T21:15:11;9.30;99.90
14099;DHT22;7126;48.458;7.930;2023-03-26T21:17:38;9.30;99.90
14099;DHT22;7126;48.458;7.930;2023-03-26T21:20:04;9.30;99.90
14099;DHT22;7126;48.458;7.930;2023-03-26T21:25:50;9.30;99.90
14099;DHT22;7126;48.458;7.930;2023-03-26T21:28:39;9.30;99.90
14099;DHT22;7126;48.458;7.930;2023-03-26T21:31:17;9.30;99.90
14099;DHT22;7126;48.458;7.930;2023-03-26T21:33:44;9.30;99.90
14099;DHT22;7126;48.458;7.930;2023-03-26T21:36:10;9.30;99.90
14099;DHT22;7126;48.458;7.930;2023-03-26T21:38:36;9.30;99.90
14099;DHT22;7126;48.458;7.930;2023-03-26T21:41:03;9.30;99.90
14099;DHT22;7126;48.458;7.930;2023-03-26T21:43:28;9.30;99.90
14099;DHT22;7126;48.458;7.930;2023-03-26T21:45:54;9.30;99.90
14099;DHT22;7126;48.458;7.930;2023-03-26T21:48:21;9.30;99.90
14099;DHT22;7126;48.458;7.930;2023-03-26T21:50:47;9.30;99.90
14099;DHT22;7126;48.458;7.930;2023-03-26T21:53:14;9.30;99.90
14099;DHT22;7126;48.458;7.930;2023-03-26T22:03:49;9.20;99.90
14099;DHT22;7126;48.458;7.930;2023-03-26T22:06:43;9.20;99.90
14099;DHT22;7126;48.458;7.930;2023-03-26T22:09:09;9.20;99.90
14099;DHT22;7126;48.458;7.930;2023-03-26T22:11:36;9.30;99.90
14099;DHT22;7126;48.458;7.930;2023-03-26T22:14:02;9.30;99.90
14099;DHT22;7126;48.458;7.930;2023-03-26T22:16:29;9.40;99.90
14099;DHT22;7126;48.458;7.930;2023-03-26T22:18:55;9.30;99.90
14099;DHT22;7126;48.458;7.930;2023-03-26T22:21:21;9.30;99.90
14099;DHT22;7126;48.458;7.930;2023-03-26T22:23:48;9.30;99.90
14099;DHT22;7126;48.458;7.930;2023-03-26T22:26:18;9.20;99.90
14099;DHT22;7126;48.458;7.930;2023-03-26T22:28:44;9.20;99.90
14099;DHT22;7126;48.458;7.930;2023-03-26T22:31:11;9.20;99.90
14099;DHT22;7126;48.458;7.930;2023-03-26T22:33:38;9.20;99.90